Time;durP1;ratioP1;P1;durP2;ratioP2;P2;SDS_P1;SDS_P2;PMS_P1;PMS_P2;Temp;Humidity;BMP_temperature;BMP_pressure;BME280_temperature;BME280_humidity;BME280_pressure;Samples;Min_cycle;Max_cycle;Signal;HPM_P1;HPM_P2
2023/04/18 00:02:21;;;;;;;;;49.25;43.75;;;;;;;;5247061;28;9502;-70
2023/04/18 00:04:53;;;;;;;;;63.80;51.80;;;;;;;;5247902;28;11482;-70
2023/04/18 00:07:24;;;;;;;;;52.60;45.00;;;;;;;;5226059;28;8920;-69
2023/04/18 00:09:55;;;;;;;;;60.80;48.40;;;;;;;;5243033;28;8919;-71
2023/04/18 00:12:45;;;;;;;;;53.20;44.00;;;;;;;;5229154;28;8871;-71
2023/04/18 00:15:34;;;;;;;;;57.20;46.80;;;;;;;;5227937;28;8778;-71
2023/04/18 00:18:07;;;;;;;;;36.40;33.20;;;;;;;;5226651;28;8781;-71
2023/04/18 00:20:38;;;;;;;;;22.20;21.20;;;;;;;;5227071;28;8851;-71
2023/04/18 00:23:12;;;;;;;;;8.00;8.00;;;;;;;;5210238;28;8836;-72
2023/04/18 00:25:43;;;;;;;;;5.80;5.20;;;;;;;;5226618;28;8900;-71
2023/04/18 00:28:14;;;;;;;;;7.25;7.00;;;;;;;;5245066;28;8922;-71
2023/04/18 00:30:46;;;;;;;;;15.25;13.50;;;;;;;;5247292;28;11435;-72
2023/04/18 00:33:18;;;;;;;;;16.00;16.00;;;;;;;;5213929;28;12198;-71
2023/04/18 00:35:49;;;;;;;;;22.80;22.80;;;;;;;;5246960;28;8929;-71
2023/04/18 00:38:20;;;;;;;;;35.80;35.40;;;;;;;;5227104;28;8783;-70
2023/04/18 00:40:52;;;;;;;;;53.00;44.00;;;;;;;;5209529;28;8813;-71
2023/04/18 00:43:23;;;;;;;;;42.25;39.50;;;;;;;;5225939;28;9485;-71
2023/04/18 00:45:55;;;;;;;;;22.00;21.80;;;;;;;;5209791;28;9481;-71
2023/04/18 00:48:26;;;;;;;;;30.80;28.20;;;;;;;;5193420;28;8892;-71
2023/04/18 00:50:59;;;;;;;;;26.80;26.80;;;;;;;;5228391;28;8871;-71
2023/04/18 00:53:30;;;;;;;;;32.60;30.20;;;;;;;;5229993;28;8905;-71
2023/04/18 00:56:01;;;;;;;;;30.20;28.60;;;;;;;;5247876;28;8782;-71
2023/04/18 00:58:32;;;;;;;;;38.60;37.00;;;;;;;;5240182;28;8812;-71
2023/04/18 01:01:03;;;;;;;;;34.40;33.60;;;;;;;;5209419;28;8863;-71
2023/04/18 01:03:36;;;;;;;;;20.25;20.25;;;;;;;;5227013;28;8786;-71
2023/04/18 01:06:07;;;;;;;;;20.40;20.00;;;;;;;;5230751;28;8795;-71
2023/04/18 01:08:38;;;;;;;;;20.00;19.00;;;;;;;;5246425;28;8776;-71
2023/04/18 01:11:27;;;;;;;;;32.20;29.20;;;;;;;;5246737;28;8776;-70
2023/04/18 01:14:02;;;;;;;;;41.25;38.75;;;;;;;;5247518;28;8779;-70
2023/04/18 01:16:33;;;;;;;;;44.60;39.80;;;;;;;;5237755;28;8876;-71
2023/04/18 01:19:05;;;;;;;;;48.75;43.00;;;;;;;;5225617;28;8797;-71
2023/04/18 01:21:40;;;;;;;;;46.00;41.40;;;;;;;;5217540;28;11511;-71
2023/04/18 01:24:13;;;;;;;;;46.60;40.20;;;;;;;;5225689;28;8813;-70
2023/04/18 01:26:48;;;;;;;;;49.20;41.80;;;;;;;;5229407;28;8771;-71
2023/04/18 01:29:19;;;;;;;;;24.80;23.40;;;;;;;;5246261;28;8791;-71
2023/04/18 01:31:50;;;;;;;;;50.00;43.00;;;;;;;;5246013;28;8825;-69
2023/04/18 01:34:21;;;;;;;;;61.80;50.20;;;;;;;;5222988;28;10816;-70
2023/04/18 01:36:52;;;;;;;;;54.50;45.50;;;;;;;;5245886;28;8771;-71
2023/04/18 01:39:23;;;;;;;;;49.75;43.75;;;;;;;;5228151;28;10340;-70
2023/04/18 01:41:54;;;;;;;;;43.75;40.25;;;;;;;;5245465;28;11602;-70
2023/04/18 01:44:26;;;;;;;;;43.80;40.60;;;;;;;;5233720;28;8861;-70
2023/04/18 01:46:57;;;;;;;;;55.50;47.25;;;;;;;;5212546;28;9462;-71
2023/04/18 01:49:29;;;;;;;;;71.80;55.80;;;;;;;;5229025;28;11513;-70
2023/04/18 01:52:18;;;;;;;;;86.20;67.60;;;;;;;;5245570;28;8771;-70
2023/04/18 01:54:49;;;;;;;;;88.00;67.50;;;;;;;;5243610;28;8815;-69
2023/04/18 01:57:20;;;;;;;;;88.60;69.20;;;;;;;;5224182;28;8955;-69
2023/04/18 01:59:53;;;;;;;;;64.40;51.40;;;;;;;;5208346;28;8794;-69
2023/04/18 02:02:24;;;;;;;;;89.60;72.20;;;;;;;;5227994;28;9578;-69
2023/04/18 02:04:55;;;;;;;;;72.20;56.60;;;;;;;;5224493;28;8810;-70
2023/04/18 02:07:26;;;;;;;;;73.00;57.00;;;;;;;;5225182;28;8782;-69
2023/04/18 02:09:57;;;;;;;;;72.00;55.75;;;;;;;;5225581;28;11535;-69
2023/04/18 02:12:28;;;;;;;;;73.25;57.50;;;;;;;;5224538;28;8797;-69
2023/04/18 02:15:00;;;;;;;;;70.20;56.40;;;;;;;;5207991;28;9731;-69
2023/04/18 02:17:32;;;;;;;;;64.20;53.00;;;;;;;;5235679;28;8814;-69
2023/04/18 02:20:03;;;;;;;;;51.00;44.60;;;;;;;;5242891;28;9538;-69
2023/04/18 02:22:35;;;;;;;;;57.20;48.80;;;;;;;;5211830;28;8834;-70
2023/04/18 02:25:25;;;;;;;;;69.20;56.60;;;;;;;;5231155;28;8822;-70
2023/04/18 02:27:57;;;;;;;;;87.40;68.60;;;;;;;;5228198;28;8810;-70
2023/04/18 02:30:28;;;;;;;;;77.20;57.20;;;;;;;;5225280;28;8825;-70
2023/04/18 02:32:58;;;;;;;;;59.25;47.25;;;;;;;;5224637;28;8830;-70
2023/04/18 02:35:30;;;;;;;;;50.75;42.50;;;;;;;;5223082;28;8962;-70
2023/04/18 02:38:01;;;;;;;;;67.40;52.60;;;;;;;;5207593;28;8887;-69
2023/04/18 02:40:32;;;;;;;;;41.00;36.80;;;;;;;;5224813;28;8817;-69
2023/04/18 02:43:21;;;;;;;;;49.20;42.40;;;;;;;;5224118;28;8837;-71
2023/04/18 02:45:52;;;;;;;;;62.60;52.20;;;;;;;;5224915;28;8777;-70
2023/04/18 02:48:23;;;;;;;;;61.80;51.00;;;;;;;;5207219;28;8786;-70
2023/04/18 02:51:00;;;;;;;;;63.80;51.80;;;;;;;;5235618;28;8851;-70
2023/04/18 02:53:31;;;;;;;;;67.80;54.40;;;;;;;;5226182;28;8879;-70
2023/04/18 02:56:21;;;;;;;;;65.00;52.60;;;;;;;;5210155;28;8855;-71
2023/04/18 02:59:10;;;;;;;;;63.00;50.80;;;;;;;;5225353;28;9684;-71
2023/04/18 03:02:00;;;;;;;;;232.50;181.00;;;;;;;;5224519;28;8837;-71
2023/04/18 03:04:31;;;;;;;;;80.80;62.80;;;;;;;;5223850;28;11662;-72
2023/04/18 03:07:05;;;;;;;;;72.00;56.80;;;;;;;;5240582;28;8801;-71
2023/04/18 03:09:39;;;;;;;;;67.60;55.80;;;;;;;;5248095;28;9513;-71
2023/04/18 03:12:20;;;;;;;;;73.00;57.00;;;;;;;;5248269;28;8819;-71
2023/04/18 03:14:51;;;;;;;;;76.40;59.20;;;;;;;;5249905;28;8818;-71
2023/04/18 03:17:22;;;;;;;;;76.75;60.00;;;;;;;;5248449;28;8798;-71
2023/04/18 03:19:53;;;;;;;;;81.80;61.60;;;;;;;;5230918;28;8779;-70
2023/04/18 03:22:24;;;;;;;;;80.40;65.00;;;;;;;;5211042;28;8813;-70
2023/04/18 03:25:00;;;;;;;;;78.60;62.40;;;;;;;;5229306;28;8928;-72
2023/04/18 03:27:45;;;;;;;;;75.20;60.80;;;;;;;;5246505;28;8891;-72
2023/04/18 03:30:19;;;;;;;;;73.20;57.20;;;;;;;;5246952;28;8795;-71
2023/04/18 03:32:55;;;;;;;;;70.60;55.00;;;;;;;;5244810;28;9597;-71
2023/04/18 03:35:26;;;;;;;;;73.80;57.60;;;;;;;;5247213;28;8830;-69
2023/04/18 03:37:57;;;;;;;;;72.75;56.50;;;;;;;;5248517;28;8795;-70
2023/04/18 03:40:31;;;;;;;;;60.00;49.00;;;;;;;;5247726;28;8821;-70
2023/04/18 03:43:09;;;;;;;;;61.00;50.00;;;;;;;;5216137;28;8815;-69
2023/04/18 03:45:40;;;;;;;;;66.60;53.40;;;;;;;;5244123;28;8865;-69
2023/04/18 03:48:11;;;;;;;;;60.75;50.25;;;;;;;;5227378;28;8794;-69
2023/04/18 03:50:46;;;;;;;;;56.00;46.60;;;;;;;;5240651;28;8811;-69
2023/04/18 03:53:18;;;;;;;;;62.80;50.00;;;;;;;;5231454;28;8937;-77
2023/04/18 03:55:50;;;;;;;;;81.40;66.80;;;;;;;;5231326;28;8787;-78
2023/04/18 03:58:41;;;;;;;;;89.75;80.75;;;;;;;;5233628;28;8927;-78
2023/04/18 04:01:14;;;;;;;;;82.60;70.40;;;;;;;;5231333;28;9578;-78
2023/04/18 04:03:46;;;;;;;;;82.60;67.40;;;;;;;;5214266;28;8937;-78
2023/04/18 04:06:37;;;;;;;;;59.60;49.40;;;;;;;;5227366;28;8797;-78
2023/04/18 04:09:09;;;;;;;;;58.00;48.20;;;;;;;;5227139;28;8786;-79
2023/04/18 04:11:44;;;;;;;;;47.60;41.40;;;;;;;;5211166;28;8812;-79
2023/04/18 04:14:20;;;;;;;;;44.40;39.60;;;;;;;;5227328;28;9571;-79
2023/04/18 04:16:52;;;;;;;;;34.20;32.40;;;;;;;;5226378;28;8896;-79
2023/04/18 04:19:25;;;;;;;;;37.00;35.00;;;;;;;;5210304;28;8805;-80
2023/04/18 04:22:11;;;;;;;;;46.80;41.20;;;;;;;;5227086;28;8825;-78
2023/04/18 04:25:03;;;;;;;;;51.60;42.20;;;;;;;;5212536;28;8789;-79
2023/04/18 04:27:42;;;;;;;;;79.20;63.40;;;;;;;;5202464;28;8810;-79
2023/04/18 04:30:17;;;;;;;;;60.40;49.40;;;;;;;;5231143;28;8929;-79
2023/04/18 04:32:50;;;;;;;;;70.40;56.20;;;;;;;;5214204;28;8795;-79
2023/04/18 04:35:42;;;;;;;;;38.40;34.00;;;;;;;;5233036;28;8830;-79
2023/04/18 04:38:14;;;;;;;;;28.60;26.00;;;;;;;;5213890;28;8794;-79
2023/04/18 04:40:52;;;;;;;;;28.40;27.00;;;;;;;;5231295;28;8763;-85
2023/04/18 04:43:24;;;;;;;;;21.80;21.40;;;;;;;;5209030;28;8953;-81
2023/04/18 04:45:57;;;;;;;;;18.40;18.40;;;;;;;;5214807;28;8882;-81
2023/04/18 04:48:30;;;;;;;;;22.20;21.40;;;;;;;;5225906;28;8802;-81
2023/04/18 04:51:04;;;;;;;;;15.20;15.20;;;;;;;;5227376;28;8818;-82
2023/04/18 04:53:55;;;;;;;;;15.20;15.20;;;;;;;;5230997;28;8884;-81
2023/04/18 04:56:28;;;;;;;;;11.40;11.00;;;;;;;;5228509;28;9538;-81
2023/04/18 04:59:02;;;;;;;;;61.20;50.20;;;;;;;;5212233;28;8799;-81
2023/04/18 05:01:41;;;;;;;;;36.60;34.40;;;;;;;;5207219;28;8948;-81
2023/04/18 05:04:13;;;;;;;;;59.80;49.20;;;;;;;;5206704;28;8786;-72
2023/04/18 05:06:44;;;;;;;;;33.60;32.40;;;;;;;;5223952;28;8773;-73
2023/04/18 05:09:15;;;;;;;;;70.40;55.40;;;;;;;;5191134;28;8797;-73
2023/04/18 05:11:48;;;;;;;;;59.00;48.00;;;;;;;;5223660;28;8863;-73
2023/04/18 05:14:37;;;;;;;;;54.80;46.40;;;;;;;;5223718;28;8863;-73
2023/04/18 05:17:08;;;;;;;;;49.75;43.00;;;;;;;;5190734;28;8802;-73
2023/04/18 05:19:39;;;;;;;;;16.40;16.40;;;;;;;;5225947;28;11544;-73
2023/04/18 05:22:10;;;;;;;;;9.20;8.80;;;;;;;;5224439;28;8847;-73
2023/04/18 05:24:42;;;;;;;;;7.20;7.00;;;;;;;;5229912;28;9348;-82
2023/04/18 05:27:13;;;;;;;;;9.00;9.00;;;;;;;;5228024;28;8809;-79
2023/04/18 05:29:46;;;;;;;;;7.40;7.40;;;;;;;;5191574;28;9496;-80
2023/04/18 05:32:18;;;;;;;;;10.00;8.20;;;;;;;;5208858;28;8835;-79
2023/04/18 05:34:50;;;;;;;;;16.40;16.00;;;;;;;;5224728;28;8825;-80
2023/04/18 05:37:21;;;;;;;;;19.20;19.20;;;;;;;;5228477;28;8815;-79
2023/04/18 05:39:53;;;;;;;;;9.00;9.00;;;;;;;;5212612;28;8789;-78
2023/04/18 05:42:25;;;;;;;;;4.60;4.60;;;;;;;;5213678;28;8829;-79
2023/04/18 05:44:56;;;;;;;;;23.00;23.00;;;;;;;;5224982;28;9508;-72
2023/04/18 05:47:29;;;;;;;;;20.25;20.00;;;;;;;;5224987;28;8879;-80
2023/04/18 05:50:00;;;;;;;;;17.40;13.40;;;;;;;;5224856;28;10428;-80
2023/04/18 05:52:35;;;;;;;;;11.80;11.80;;;;;;;;5208385;28;8855;-77
2023/04/18 05:55:07;;;;;;;;;9.00;9.00;;;;;;;;5224865;28;8805;-80
2023/04/18 05:57:40;;;;;;;;;8.60;8.40;;;;;;;;5224579;28;8806;-79
2023/04/18 06:00:12;;;;;;;;;10.40;10.40;;;;;;;;5245069;28;8823;-78
2023/04/18 06:02:46;;;;;;;;;10.80;10.80;;;;;;;;5246312;28;8857;-78
2023/04/18 06:05:18;;;;;;;;;9.20;9.20;;;;;;;;5212323;28;8783;-78
2023/04/18 06:07:49;;;;;;;;;11.20;11.20;;;;;;;;5228604;28;8787;-78
2023/04/18 06:10:20;;;;;;;;;14.40;14.40;;;;;;;;5245300;28;8799;-78
2023/04/18 06:12:52;;;;;;;;;1.80;1.80;;;;;;;;5210477;28;9498;-78
2023/04/18 06:15:24;;;;;;;;;2.00;2.00;;;;;;;;5245212;28;8779;-78
2023/04/18 06:18:14;;;;;;;;;5.00;5.00;;;;;;;;5223504;28;8794;-79
2023/04/18 06:20:46;;;;;;;;;3.00;3.00;;;;;;;;5224344;28;8777;-79
2023/04/18 06:23:17;;;;;;;;;18.40;18.40;;;;;;;;5224406;28;8813;-79
2023/04/18 06:25:49;;;;;;;;;9.40;9.40;;;;;;;;5224554;28;8785;-78
2023/04/18 06:28:21;;;;;;;;;3.00;3.00;;;;;;;;5224425;28;8831;-78
2023/04/18 06:30:52;;;;;;;;;6.00;6.00;;;;;;;;5224415;28;8766;-79
2023/04/18 06:33:23;;;;;;;;;8.20;8.20;;;;;;;;5207250;28;8797;-74
2023/04/18 06:35:55;;;;;;;;;1.00;1.00;;;;;;;;5231891;28;8799;-79
2023/04/18 06:38:26;;;;;;;;;22.20;22.00;;;;;;;;5211792;28;11444;-75
2023/04/18 06:40:58;;;;;;;;;1.00;1.00;;;;;;;;5217038;28;8871;-79
2023/04/18 06:43:30;;;;;;;;;12.60;12.60;;;;;;;;5235040;28;8818;-78
2023/04/18 06:46:03;;;;;;;;;7.60;7.60;;;;;;;;5218551;28;8875;-75
2023/04/18 06:48:34;;;;;;;;;4.00;4.00;;;;;;;;5207760;28;8797;-77
2023/04/18 06:51:05;;;;;;;;;2.75;2.75;;;;;;;;5198333;28;8793;-77
2023/04/18 06:53:37;;;;;;;;;3.00;3.00;;;;;;;;5213907;28;8818;-77
2023/04/18 06:56:08;;;;;;;;;1.75;1.75;;;;;;;;5242551;28;8786;-77
2023/04/18 06:58:39;;;;;;;;;1.75;1.75;;;;;;;;5213671;28;9524;-77
2023/04/18 07:01:11;;;;;;;;;0.50;0.50;;;;;;;;5229403;28;8832;-70
2023/04/18 07:03:42;;;;;;;;;3.75;3.75;;;;;;;;5230511;28;8801;-70
2023/04/18 07:06:13;;;;;;;;;0.00;0.00;;;;;;;;5230207;28;8796;-70
2023/04/18 07:08:44;;;;;;;;;2.00;2.00;;;;;;;;5230805;28;11595;-70
2023/04/18 07:11:17;;;;;;;;;3.00;3.00;;;;;;;;5212518;28;11488;-70
2023/04/18 07:13:49;;;;;;;;;0.00;0.00;;;;;;;;5212857;28;8824;-70
2023/04/18 07:16:20;;;;;;;;;1.00;1.00;;;;;;;;5228945;28;8801;-70
2023/04/18 07:18:51;;;;;;;;;13.20;13.20;;;;;;;;5212435;28;8844;-70
2023/04/18 07:21:22;;;;;;;;;5.00;5.00;;;;;;;;5229104;28;8810;-70
2023/04/18 07:23:53;;;;;;;;;2.25;2.25;;;;;;;;5230427;28;9734;-71
2023/04/18 07:26:26;;;;;;;;;2.00;2.00;;;;;;;;5230000;28;9476;-75
2023/04/18 07:28:57;;;;;;;;;1.25;1.25;;;;;;;;5238676;28;10997;-72
2023/04/18 07:31:29;;;;;;;;;1.00;1.00;;;;;;;;5228519;28;8801;-80
2023/04/18 07:34:01;;;;;;;;;2.00;2.00;;;;;;;;5228564;28;11578;-68
2023/04/18 07:36:33;;;;;;;;;0.50;0.50;;;;;;;;5228927;28;8789;-70
2023/04/18 07:39:04;;;;;;;;;0.00;0.00;;;;;;;;5220619;28;8814;-70
2023/04/18 07:41:35;;;;;;;;;1.00;0.00;;;;;;;;5249582;28;8802;-70
2023/04/18 07:44:06;;;;;;;;;2.00;2.00;;;;;;;;5232407;28;8835;-69
2023/04/18 07:46:36;;;;;;;;;4.00;4.00;;;;;;;;5249571;28;9206;-69
2023/04/18 07:49:07;;;;;;;;;6.80;6.80;;;;;;;;5250711;28;8791;-70
2023/04/18 07:51:38;;;;;;;;;0.33;0.33;;;;;;;;5248663;28;8791;-69
2023/04/18 07:54:10;;;;;;;;;0.00;0.00;;;;;;;;5218855;28;11439;-69
2023/04/18 07:56:59;;;;;;;;;3.00;3.00;;;;;;;;5232588;28;8801;-69
2023/04/18 07:59:31;;;;;;;;;3.25;3.25;;;;;;;;5234702;28;8924;-69
2023/04/18 08:02:01;;;;;;;;;5.00;5.00;;;;;;;;5228054;28;8825;-70
2023/04/18 08:04:51;;;;;;;;;1.00;1.00;;;;;;;;5226890;28;8810;-70
2023/04/18 08:07:21;;;;;;;;;1.33;1.33;;;;;;;;5227229;28;8910;-70
2023/04/18 08:09:52;;;;;;;;;3.00;3.00;;;;;;;;5226963;28;8785;-70
2023/04/18 08:12:23;;;;;;;;;1.67;1.67;;;;;;;;5243460;28;8809;-69
2023/04/18 08:14:54;;;;;;;;;2.00;2.00;;;;;;;;5226410;28;8854;-71
2023/04/18 08:17:25;;;;;;;;;1.75;1.75;;;;;;;;5210267;28;8790;-68
2023/04/18 08:19:56;;;;;;;;;2.00;2.00;;;;;;;;5243302;28;8790;-69
2023/04/18 08:22:27;;;;;;;;;2.00;2.00;;;;;;;;5226727;28;8821;-68
2023/04/18 08:24:59;;;;;;;;;1.00;1.00;;;;;;;;5225789;28;8868;-69
2023/04/18 08:27:31;;;;;;;;;1.25;1.25;;;;;;;;5208699;28;8793;-70
2023/04/18 08:30:03;;;;;;;;;2.00;2.00;;;;;;;;5228107;28;8818;-70
2023/04/18 08:32:35;;;;;;;;;29.40;28.00;;;;;;;;5243238;28;8802;-69
2023/04/18 08:35:06;;;;;;;;;1.00;1.00;;;;;;;;5224612;28;8829;-70
2023/04/18 08:37:37;;;;;;;;;2.00;2.00;;;;;;;;5226408;28;8859;-70
2023/04/18 08:40:07;;;;;;;;;3.00;3.00;;;;;;;;5226432;28;8802;-69
2023/04/18 08:42:41;;;;;;;;;1.00;1.00;;;;;;;;5228033;28;8833;-70
2023/04/18 08:45:13;;;;;;;;;3.00;3.00;;;;;;;;5209564;28;11472;-70
2023/04/18 08:47:43;;;;;;;;;1.50;1.50;;;;;;;;5209820;28;8863;-70
2023/04/18 08:50:16;;;;;;;;;1.67;1.67;;;;;;;;5226073;28;8782;-69
2023/04/18 08:52:49;;;;;;;;;1.00;1.00;;;;;;;;5226069;28;8813;-70
2023/04/18 08:55:23;;;;;;;;;1.00;1.00;;;;;;;;5227788;28;8814;-70
2023/04/18 08:57:54;;;;;;;;;1.00;1.00;;;;;;;;5227207;28;8790;-70
2023/04/18 09:00:48;;;;;;;;;0.75;0.75;;;;;;;;5225999;28;8778;-69
2023/04/18 09:03:42;;;;;;;;;0.25;0.25;;;;;;;;5226173;28;8802;-70
2023/04/18 09:06:17;;;;;;;;;0.00;0.00;;;;;;;;5218336;28;8802;-69
2023/04/18 09:09:07;;;;;;;;;0.00;0.00;;;;;;;;5227024;28;8854;-69
2023/04/18 09:11:38;;;;;;;;;1.00;1.00;;;;;;;;5225424;28;8798;-69
2023/04/18 09:14:22;;;;;;;;;1.00;1.00;;;;;;;;5226859;28;8789;-70
2023/04/18 09:16:54;;;;;;;;;0.00;0.00;;;;;;;;5209374;28;8790;-70
2023/04/18 09:19:25;;;;;;;;;1.00;0.75;;;;;;;;5225607;28;8781;-70
2023/04/18 09:21:57;;;;;;;;;1.33;1.33;;;;;;;;5226493;28;8794;-70
2023/04/18 09:24:29;;;;;;;;;0.00;0.00;;;;;;;;5209304;28;11573;-69
2023/04/18 09:27:00;;;;;;;;;0.00;0.00;;;;;;;;5209014;28;8766;-70
2023/04/18 09:29:42;;;;;;;;;1.00;1.00;;;;;;;;5226615;28;9477;-70
2023/04/18 09:32:23;;;;;;;;;1.00;1.00;;;;;;;;5226663;28;8808;-70
2023/04/18 09:34:58;;;;;;;;;1.00;1.00;;;;;;;;5225106;28;8818;-69
2023/04/18 09:37:29;;;;;;;;;0.00;0.00;;;;;;;;5225270;28;8770;-69
2023/04/18 09:40:14;;;;;;;;;0.00;0.00;;;;;;;;5225459;28;8805;-70
2023/04/18 09:42:45;;;;;;;;;0.00;0.00;;;;;;;;5225094;28;11464;-79
2023/04/18 09:45:16;;;;;;;;;0.75;0.75;;;;;;;;5209226;28;8975;-79
2023/04/18 09:47:47;;;;;;;;;0.00;0.00;;;;;;;;5192006;28;8778;-79
2023/04/18 09:50:19;;;;;;;;;2.00;2.00;;;;;;;;5191554;28;8785;-79
2023/04/18 09:52:50;;;;;;;;;0.50;0.50;;;;;;;;5238587;28;9007;-78
2023/04/18 09:55:22;;;;;;;;;2.00;2.00;;;;;;;;5209600;28;8840;-79
2023/04/18 09:57:53;;;;;;;;;1.00;1.00;;;;;;;;5208465;28;8798;-79
2023/04/18 10:00:26;;;;;;;;;0.50;0.50;;;;;;;;5208636;28;8814;-79
2023/04/18 10:02:57;;;;;;;;;1.00;1.00;;;;;;;;5217563;28;9549;-79
2023/04/18 10:05:32;;;;;;;;;1.00;1.00;;;;;;;;5206224;28;8805;-79
2023/04/18 10:08:03;;;;;;;;;1.00;1.00;;;;;;;;5202529;28;8867;-80
2023/04/18 10:10:35;;;;;;;;;8.00;8.00;;;;;;;;5208848;28;8823;-79
2023/04/18 10:13:10;;;;;;;;;1.00;1.00;;;;;;;;5210535;28;8799;-79
2023/04/18 10:15:42;;;;;;;;;1.50;1.50;;;;;;;;5244391;28;8775;-79
2023/04/18 10:18:13;;;;;;;;;8.00;8.00;;;;;;;;5210121;28;8795;-80
2023/04/18 10:20:45;;;;;;;;;1.50;1.50;;;;;;;;5210566;28;9541;-80
2023/04/18 10:23:34;;;;;;;;;1.00;1.00;;;;;;;;5194370;28;8832;-79
2023/04/18 10:26:07;;;;;;;;;0.25;0.25;;;;;;;;5215983;28;8874;-78
2023/04/18 10:28:51;;;;;;;;;0.25;0.25;;;;;;;;5208800;28;8780;-79
2023/04/18 10:31:27;;;;;;;;;1.50;1.50;;;;;;;;5213235;28;8825;-78
2023/04/18 10:33:58;;;;;;;;;4.50;4.50;;;;;;;;5207528;28;8815;-78
2023/04/18 10:36:29;;;;;;;;;23.00;23.00;;;;;;;;5203410;28;8794;-78
2023/04/18 10:39:18;;;;;;;;;1.00;1.00;;;;;;;;5202398;28;8822;-77
2023/04/18 10:41:50;;;;;;;;;1.00;1.00;;;;;;;;5208550;28;8801;-77
2023/04/18 10:44:21;;;;;;;;;0.00;0.00;;;;;;;;5191809;28;8802;-77
2023/04/18 10:46:52;;;;;;;;;0.25;0.25;;;;;;;;5191433;28;8790;-77
2023/04/18 10:49:24;;;;;;;;;0.50;0.50;;;;;;;;5191060;28;8936;-77
2023/04/18 10:51:59;;;;;;;;;0.00;0.00;;;;;;;;5191480;28;8786;-78
2023/04/18 10:54:37;;;;;;;;;2.25;2.25;;;;;;;;5229876;28;8822;-77
2023/04/18 10:57:10;;;;;;;;;1.00;1.00;;;;;;;;5211150;28;8948;-69
2023/04/18 10:59:41;;;;;;;;;0.00;0.00;;;;;;;;5223826;28;8774;-69
2023/04/18 11:02:21;;;;;;;;;2.25;2.25;;;;;;;;5224094;28;8864;-69
2023/04/18 11:04:53;;;;;;;;;0.75;0.75;;;;;;;;5224462;28;8801;-69
2023/04/18 11:07:50;;;;;;;;;1.00;1.00;;;;;;;;5224115;28;8803;-70
2023/04/18 11:10:23;;;;;;;;;0.00;0.00;;;;;;;;5222244;28;8951;-70
2023/04/18 11:12:55;;;;;;;;;0.25;0.25;;;;;;;;5228819;28;8795;-69
2023/04/18 11:15:26;;;;;;;;;1.00;1.00;;;;;;;;5238859;28;8786;-69
2023/04/18 11:18:03;;;;;;;;;0.00;0.00;;;;;;;;5226948;28;8790;-70
2023/04/18 11:20:38;;;;;;;;;0.00;0.00;;;;;;;;5235575;28;11470;-68
2023/04/18 11:23:21;;;;;;;;;0.00;0.00;;;;;;;;5223964;28;8939;-69
2023/04/18 11:25:55;;;;;;;;;1.50;1.50;;;;;;;;5241083;28;9650;-70
2023/04/18 11:28:26;;;;;;;;;0.00;0.00;;;;;;;;5227416;28;8766;-70
2023/04/18 11:30:59;;;;;;;;;5.00;5.00;;;;;;;;5230051;28;8817;-70
2023/04/18 11:33:30;;;;;;;;;0.75;0.75;;;;;;;;5244160;28;9561;-71
2023/04/18 11:36:01;;;;;;;;;0.00;0.00;;;;;;;;5226760;28;8801;-71
2023/04/18 11:38:32;;;;;;;;;14.25;13.50;;;;;;;;5236602;28;8818;-70
2023/04/18 11:41:03;;;;;;;;;1.50;1.50;;;;;;;;5249054;28;8972;-70
2023/04/18 11:43:34;;;;;;;;;1.00;1.00;;;;;;;;5238645;28;8837;-71
2023/04/18 11:46:05;;;;;;;;;0.50;0.50;;;;;;;;5214329;28;8824;-70
2023/04/18 11:48:36;;;;;;;;;0.75;0.75;;;;;;;;5212484;28;9626;-70
2023/04/18 11:51:27;;;;;;;;;0.00;0.00;;;;;;;;5246134;28;8811;-70
2023/04/18 11:53:58;;;;;;;;;0.00;0.00;;;;;;;;5247347;28;8929;-70
2023/04/18 11:56:30;;;;;;;;;0.00;0.00;;;;;;;;5232481;28;8905;-70
2023/04/18 11:59:07;;;;;;;;;1.00;1.00;;;;;;;;5234604;28;8809;-70
2023/04/18 12:01:38;;;;;;;;;0.00;0.00;;;;;;;;5229633;28;8920;-70
2023/04/18 12:04:09;;;;;;;;;0.00;0.00;;;;;;;;5247778;28;8809;-70
2023/04/18 12:06:47;;;;;;;;;0.00;0.00;;;;;;;;5246852;28;8775;-70
2023/04/18 12:09:20;;;;;;;;;1.50;1.50;;;;;;;;5246062;28;8795;-70
2023/04/18 12:12:10;;;;;;;;;0.00;0.00;;;;;;;;5229388;28;8797;-69
2023/04/18 12:14:41;;;;;;;;;7.00;7.00;;;;;;;;5226830;28;8782;-69
2023/04/18 12:17:12;;;;;;;;;1.00;1.00;;;;;;;;5242020;28;8853;-70
2023/04/18 12:20:02;;;;;;;;;0.00;0.00;;;;;;;;5242971;28;8861;-69
2023/04/18 12:22:37;;;;;;;;;0.00;0.00;;;;;;;;5237523;28;8826;-70
2023/04/18 12:25:20;;;;;;;;;0.00;0.00;;;;;;;;5245848;28;8803;-70
2023/04/18 12:27:52;;;;;;;;;1.00;1.00;;;;;;;;5234212;28;8839;-70
2023/04/18 12:30:25;;;;;;;;;0.00;0.00;;;;;;;;5240991;28;8813;-70
2023/04/18 12:32:58;;;;;;;;;1.00;1.00;;;;;;;;5241972;28;8803;-70
2023/04/18 12:35:29;;;;;;;;;5.50;5.50;;;;;;;;5212152;28;8836;-70
2023/04/18 12:38:01;;;;;;;;;1.50;1.50;;;;;;;;5245204;28;8783;-70
2023/04/18 12:40:32;;;;;;;;;6.50;6.25;;;;;;;;5239863;28;8813;-71
2023/04/18 12:43:03;;;;;;;;;8.33;8.33;;;;;;;;5236691;28;8841;-71
2023/04/18 12:45:33;;;;;;;;;5.00;5.00;;;;;;;;5246397;28;8779;-71
2023/04/18 12:48:05;;;;;;;;;12.20;12.20;;;;;;;;5244943;28;8852;-71
2023/04/18 12:50:36;;;;;;;;;0.00;0.00;;;;;;;;5219136;28;8871;-70
2023/04/18 12:53:26;;;;;;;;;21.00;21.00;;;;;;;;5239350;28;8840;-70
2023/04/18 12:55:57;;;;;;;;;3.33;3.33;;;;;;;;5226263;28;8828;-70
2023/04/18 12:58:27;;;;;;;;;32.50;30.50;;;;;;;;5226841;28;8789;-70
2023/04/18 13:00:58;;;;;;;;;1.00;1.00;;;;;;;;5240850;28;8789;-69
2023/04/18 13:03:30;;;;;;;;;0.00;0.00;;;;;;;;5228275;28;9535;-69
2023/04/18 13:06:01;;;;;;;;;0.00;0.00;;;;;;;;5240992;28;11912;-70
2023/04/18 13:08:32;;;;;;;;;2.75;2.75;;;;;;;;5245664;28;8964;-70
2023/04/18 13:11:03;;;;;;;;;24.20;24.00;;;;;;;;5239334;28;8940;-71
2023/04/18 13:13:34;;;;;;;;;3.33;3.33;;;;;;;;5225643;28;8817;-71
2023/04/18 13:16:05;;;;;;;;;3.50;3.50;;;;;;;;5228311;28;9900;-71
2023/04/18 13:18:36;;;;;;;;;3.50;3.50;;;;;;;;5226441;28;8797;-70
2023/04/18 13:21:07;;;;;;;;;15.50;15.50;;;;;;;;5240219;28;8897;-70
2023/04/18 13:23:38;;;;;;;;;2.75;2.75;;;;;;;;5225835;28;11703;-69
2023/04/18 13:26:09;;;;;;;;;2.67;2.67;;;;;;;;5220408;28;8820;-70
2023/04/18 13:28:39;;;;;;;;;0.33;0.33;;;;;;;;5227774;28;11439;-70
2023/04/18 13:31:10;;;;;;;;;10.50;10.50;;;;;;;;5228798;28;11642;-69
2023/04/18 13:33:41;;;;;;;;;1.67;1.67;;;;;;;;5224828;28;8859;-70
2023/04/18 13:36:12;;;;;;;;;8.00;8.00;;;;;;;;5225983;28;8797;-70
2023/04/18 13:38:43;;;;;;;;;3.33;3.33;;;;;;;;5245039;28;9027;-70
2023/04/18 13:41:13;;;;;;;;;12.50;12.50;;;;;;;;5242483;28;9811;-70
2023/04/18 13:43:44;;;;;;;;;7.00;7.00;;;;;;;;5224536;28;8956;-70
2023/04/18 13:46:16;;;;;;;;;7.00;7.00;;;;;;;;5225367;28;11466;-70
2023/04/18 13:48:47;;;;;;;;;15.20;15.20;;;;;;;;5207868;28;11464;-70
2023/04/18 13:51:18;;;;;;;;;3.00;3.00;;;;;;;;5209142;28;8809;-70
2023/04/18 13:53:48;;;;;;;;;4.67;4.33;;;;;;;;5242189;28;11477;-70
2023/04/18 13:56:19;;;;;;;;;1.00;1.00;;;;;;;;5237084;28;9745;-70
2023/04/18 13:59:09;;;;;;;;;2.50;2.50;;;;;;;;5245859;28;8775;-70
2023/04/18 14:01:58;;;;;;;;;6.00;6.00;;;;;;;;5236643;28;8783;-71
2023/04/18 14:04:30;;;;;;;;;1.00;1.00;;;;;;;;5224661;28;8844;-70
2023/04/18 14:07:02;;;;;;;;;5.50;5.50;;;;;;;;5224710;28;8828;-69
2023/04/18 14:09:32;;;;;;;;;8.00;8.00;;;;;;;;5237905;28;8875;-69
2023/04/18 14:12:04;;;;;;;;;20.80;19.80;;;;;;;;5244610;28;8795;-69
2023/04/18 14:14:35;;;;;;;;;2.25;2.25;;;;;;;;5215593;28;8800;-68
2023/04/18 14:17:06;;;;;;;;;7.25;7.25;;;;;;;;5241770;28;8787;-70
2023/04/18 14:19:37;;;;;;;;;2.67;2.67;;;;;;;;5224856;28;8904;-70
2023/04/18 14:22:08;;;;;;;;;4.00;4.00;;;;;;;;5235698;28;8791;-72
2023/04/18 14:24:39;;;;;;;;;30.80;29.80;;;;;;;;5228404;28;12171;-70
2023/04/18 14:27:10;;;;;;;;;8.00;8.00;;;;;;;;5216770;28;8790;-69
2023/04/18 14:29:59;;;;;;;;;2.00;2.00;;;;;;;;5210334;28;11443;-69
2023/04/18 14:32:30;;;;;;;;;8.00;8.00;;;;;;;;5232829;28;8852;-69
2023/04/18 14:35:03;;;;;;;;;1.75;1.75;;;;;;;;5242857;28;12224;-70
2023/04/18 14:37:34;;;;;;;;;1.50;1.50;;;;;;;;5225604;28;8951;-69
2023/04/18 14:40:23;;;;;;;;;4.50;4.50;;;;;;;;5226755;28;8798;-70
2023/04/18 14:42:54;;;;;;;;;3.67;3.67;;;;;;;;5229672;28;8812;-69
2023/04/18 14:45:25;;;;;;;;;1.75;1.75;;;;;;;;5224962;28;11470;-70
2023/04/18 14:47:57;;;;;;;;;23.00;18.00;;;;;;;;5225280;28;8793;-70
2023/04/18 14:50:28;;;;;;;;;8.50;8.50;;;;;;;;5225976;28;8793;-70
2023/04/18 14:52:59;;;;;;;;;1.00;1.00;;;;;;;;5224863;28;8810;-69
2023/04/18 14:55:31;;;;;;;;;25.00;24.25;;;;;;;;5227692;28;8818;-70
2023/04/18 14:58:02;;;;;;;;;14.75;14.00;;;;;;;;5245104;28;8783;-69
2023/04/18 15:00:33;;;;;;;;;6.25;5.25;;;;;;;;5213263;28;9463;-70
2023/04/18 15:03:04;;;;;;;;;0.50;0.50;;;;;;;;5241281;28;8834;-69
2023/04/18 15:05:41;;;;;;;;;1.00;1.00;;;;;;;;5211265;28;8839;-70
2023/04/18 15:08:13;;;;;;;;;1.25;1.25;;;;;;;;5228459;28;8781;-70
2023/04/18 15:10:46;;;;;;;;;1.00;1.00;;;;;;;;5228183;28;9016;-69
2023/04/18 15:13:17;;;;;;;;;0.50;0.50;;;;;;;;5228879;28;8777;-70
2023/04/18 15:15:51;;;;;;;;;2.33;2.33;;;;;;;;5216079;28;8798;-69
2023/04/18 15:18:22;;;;;;;;;2.00;2.00;;;;;;;;5239760;28;11393;-69
2023/04/18 15:20:53;;;;;;;;;0.00;0.00;;;;;;;;5228461;28;8809;-68
2023/04/18 15:23:24;;;;;;;;;1.00;1.00;;;;;;;;5249543;28;8822;-68